sensor_id;sensor_type;location;lat;lon;timestamp;P1;durP1;ratioP1;P2;durP2;ratioP2
36009;SDS011;22076;52.182;5.404;2023-05-03T00:00:34;11.32;;;2.38;;
36009;SDS011;22076;52.182;5.404;2023-05-03T00:03:01;7.63;;;2.03;;
36009;SDS011;22076;52.182;5.404;2023-05-03T00:05:28;6.00;;;2.22;;
36009;SDS011;22076;52.182;5.404;2023-05-03T00:07:55;5.43;;;2.10;;
36009;SDS011;22076;52.182;5.404;2023-05-03T00:10:23;5.40;;;1.95;;
36009;SDS011;22076;52.182;5.404;2023-05-03T00:12:50;10.88;;;2.50;;
36009;SDS011;22076;52.182;5.404;2023-05-03T00:15:16;6.10;;;1.83;;
36009;SDS011;22076;52.182;5.404;2023-05-03T00:17:43;4.75;;;1.75;;
36009;SDS011;22076;52.182;5.404;2023-05-03T00:20:09;5.80;;;2.00;;
36009;SDS011;22076;52.182;5.404;2023-05-03T00:22:37;4.80;;;1.80;;
36009;SDS011;22076;52.182;5.404;2023-05-03T00:25:03;3.40;;;1.90;;
36009;SDS011;22076;52.182;5.404;2023-05-03T00:27:32;3.83;;;1.80;;
36009;SDS011;22076;52.182;5.404;2023-05-03T00:29:58;3.45;;;2.10;;
36009;SDS011;22076;52.182;5.404;2023-05-03T00:32:25;3.60;;;2.15;;
36009;SDS011;22076;52.182;5.404;2023-05-03T00:34:51;5.90;;;2.20;;
36009;SDS011;22076;52.182;5.404;2023-05-03T00:37:18;10.38;;;2.65;;
36009;SDS011;22076;52.182;5.404;2023-05-03T00:39:45;5.03;;;2.10;;
36009;SDS011;22076;52.182;5.404;2023-05-03T00:42:11;4.63;;;1.77;;
36009;SDS011;22076;52.182;5.404;2023-05-03T00:44:39;3.55;;;2.03;;
36009;SDS011;22076;52.182;5.404;2023-05-03T00:47:06;6.88;;;2.05;;
36009;SDS011;22076;52.182;5.404;2023-05-03T00:49:33;6.47;;;2.33;;
36009;SDS011;22076;52.182;5.404;2023-05-03T00:52:00;4.80;;;1.92;;
36009;SDS011;22076;52.182;5.404;2023-05-03T00:54:28;7.53;;;1.83;;
36009;SDS011;22076;52.182;5.404;2023-05-03T00:56:55;7.15;;;2.35;;
36009;SDS011;22076;52.182;5.404;2023-05-03T00:59:22;4.30;;;1.75;;
36009;SDS011;22076;52.182;5.404;2023-05-03T01:01:50;5.68;;;2.40;;
36009;SDS011;22076;52.182;5.404;2023-05-03T01:04:18;5.40;;;1.45;;
36009;SDS011;22076;52.182;5.404;2023-05-03T01:06:47;5.28;;;2.00;;
36009;SDS011;22076;52.182;5.404;2023-05-03T01:09:20;7.95;;;2.42;;
36009;SDS011;22076;52.182;5.404;2023-05-03T01:11:52;5.57;;;1.90;;
36009;SDS011;22076;52.182;5.404;2023-05-03T01:14:26;4.72;;;1.90;;
36009;SDS011;22076;52.182;5.404;2023-05-03T01:17:00;5.32;;;2.55;;
36009;SDS011;22076;52.182;5.404;2023-05-03T01:19:31;7.03;;;2.67;;
36009;SDS011;22076;52.182;5.404;2023-05-03T01:22:02;6.90;;;2.45;;
36009;SDS011;22076;52.182;5.404;2023-05-03T01:24:36;6.20;;;2.15;;
36009;SDS011;22076;52.182;5.404;2023-05-03T01:27:05;6.07;;;1.77;;
36009;SDS011;22076;52.182;5.404;2023-05-03T01:29:33;4.97;;;2.00;;
36009;SDS011;22076;52.182;5.404;2023-05-03T01:31:59;4.15;;;1.98;;
36009;SDS011;22076;52.182;5.404;2023-05-03T01:34:27;10.05;;;2.30;;
36009;SDS011;22076;52.182;5.404;2023-05-03T01:36:57;3.78;;;1.90;;
36009;SDS011;22076;52.182;5.404;2023-05-03T01:39:28;4.88;;;2.08;;
36009;SDS011;22076;52.182;5.404;2023-05-03T01:41:57;3.95;;;2.30;;
36009;SDS011;22076;52.182;5.404;2023-05-03T01:44:25;2.00;;;1.80;;
36009;SDS011;22076;52.182;5.404;2023-05-03T01:46:52;4.68;;;1.77;;
36009;SDS011;22076;52.182;5.404;2023-05-03T01:49:19;5.85;;;1.90;;
36009;SDS011;22076;52.182;5.404;2023-05-03T01:51:45;7.55;;;2.45;;
36009;SDS011;22076;52.182;5.404;2023-05-03T01:54:12;7.03;;;1.88;;
36009;SDS011;22076;52.182;5.404;2023-05-03T01:56:38;7.00;;;2.42;;
36009;SDS011;22076;52.182;5.404;2023-05-03T01:59:05;4.43;;;2.20;;
36009;SDS011;22076;52.182;5.404;2023-05-03T02:01:33;4.68;;;1.90;;
36009;SDS011;22076;52.182;5.404;2023-05-03T02:04:00;6.30;;;2.30;;
36009;SDS011;22076;52.182;5.404;2023-05-03T02:06:27;5.82;;;2.10;;
36009;SDS011;22076;52.182;5.404;2023-05-03T02:08:53;4.32;;;2.00;;
36009;SDS011;22076;52.182;5.404;2023-05-03T02:11:20;4.00;;;2.15;;
36009;SDS011;22076;52.182;5.404;2023-05-03T02:13:47;6.93;;;2.03;;
36009;SDS011;22076;52.182;5.404;2023-05-03T02:16:14;4.78;;;1.92;;
36009;SDS011;22076;52.182;5.404;2023-05-03T02:18:41;4.22;;;1.77;;
36009;SDS011;22076;52.182;5.404;2023-05-03T02:21:08;11.02;;;2.25;;
36009;SDS011;22076;52.182;5.404;2023-05-03T02:23:35;5.13;;;2.08;;
36009;SDS011;22076;52.182;5.404;2023-05-03T02:26:01;5.63;;;1.70;;
36009;SDS011;22076;52.182;5.404;2023-05-03T02:28:28;9.80;;;2.53;;
36009;SDS011;22076;52.182;5.404;2023-05-03T02:30:54;6.80;;;2.10;;
36009;SDS011;22076;52.182;5.404;2023-05-03T02:33:21;2.60;;;1.55;;
36009;SDS011;22076;52.182;5.404;2023-05-03T02:35:49;5.68;;;1.75;;
36009;SDS011;22076;52.182;5.404;2023-05-03T02:38:15;5.82;;;2.05;;
36009;SDS011;22076;52.182;5.404;2023-05-03T02:40:42;4.85;;;2.20;;
36009;SDS011;22076;52.182;5.404;2023-05-03T02:43:08;8.18;;;2.08;;
36009;SDS011;22076;52.182;5.404;2023-05-03T02:45:35;6.55;;;2.55;;
36009;SDS011;22076;52.182;5.404;2023-05-03T02:48:01;8.27;;;2.33;;
36009;SDS011;22076;52.182;5.404;2023-05-03T02:50:28;7.43;;;2.25;;
36009;SDS011;22076;52.182;5.404;2023-05-03T02:52:56;9.77;;;2.42;;
36009;SDS011;22076;52.182;5.404;2023-05-03T02:55:22;2.85;;;1.98;;
36009;SDS011;22076;52.182;5.404;2023-05-03T02:57:49;9.93;;;2.65;;
36009;SDS011;22076;52.182;5.404;2023-05-03T03:00:15;3.70;;;1.98;;
36009;SDS011;22076;52.182;5.404;2023-05-03T03:02:42;8.32;;;2.38;;
36009;SDS011;22076;52.182;5.404;2023-05-03T03:05:08;5.28;;;2.22;;
36009;SDS011;22076;52.182;5.404;2023-05-03T03:07:36;5.20;;;2.25;;
36009;SDS011;22076;52.182;5.404;2023-05-03T03:10:04;7.15;;;1.83;;
36009;SDS011;22076;52.182;5.404;2023-05-03T03:12:32;11.00;;;2.60;;
36009;SDS011;22076;52.182;5.404;2023-05-03T03:14:59;7.72;;;2.70;;
36009;SDS011;22076;52.182;5.404;2023-05-03T03:17:25;6.82;;;1.90;;
36009;SDS011;22076;52.182;5.404;2023-05-03T03:19:51;4.72;;;2.30;;
36009;SDS011;22076;52.182;5.404;2023-05-03T03:22:18;5.75;;;2.00;;
36009;SDS011;22076;52.182;5.404;2023-05-03T03:24:45;6.03;;;2.13;;
36009;SDS011;22076;52.182;5.404;2023-05-03T03:27:13;7.93;;;2.28;;
36009;SDS011;22076;52.182;5.404;2023-05-03T03:29:39;7.40;;;2.30;;
36009;SDS011;22076;52.182;5.404;2023-05-03T03:32:06;5.47;;;2.33;;
36009;SDS011;22076;52.182;5.404;2023-05-03T03:34:32;4.40;;;2.17;;
36009;SDS011;22076;52.182;5.404;2023-05-03T03:36:59;5.93;;;1.80;;
36009;SDS011;22076;52.182;5.404;2023-05-03T03:39:25;6.57;;;2.50;;
36009;SDS011;22076;52.182;5.404;2023-05-03T03:41:52;4.57;;;2.15;;
36009;SDS011;22076;52.182;5.404;2023-05-03T03:44:20;5.35;;;2.33;;
36009;SDS011;22076;52.182;5.404;2023-05-03T03:46:46;5.50;;;2.25;;
36009;SDS011;22076;52.182;5.404;2023-05-03T03:49:13;4.43;;;2.53;;
36009;SDS011;22076;52.182;5.404;2023-05-03T03:51:39;5.50;;;2.42;;
36009;SDS011;22076;52.182;5.404;2023-05-03T03:54:06;5.82;;;2.15;;
36009;SDS011;22076;52.182;5.404;2023-05-03T03:56:32;6.30;;;2.30;;
36009;SDS011;22076;52.182;5.404;2023-05-03T03:59:00;3.47;;;1.90;;
36009;SDS011;22076;52.182;5.404;2023-05-03T04:01:28;6.07;;;2.08;;
36009;SDS011;22076;52.182;5.404;2023-05-03T04:03:55;4.90;;;2.80;;
36009;SDS011;22076;52.182;5.404;2023-05-03T04:06:21;4.68;;;2.42;;
36009;SDS011;22076;52.182;5.404;2023-05-03T04:08:48;6.20;;;2.35;;
36009;SDS011;22076;52.182;5.404;2023-05-03T04:11:14;6.88;;;2.38;;
36009;SDS011;22076;52.182;5.404;2023-05-03T04:13:41;7.88;;;2.72;;
36009;SDS011;22076;52.182;5.404;2023-05-03T04:16:07;4.13;;;2.42;;
36009;SDS011;22076;52.182;5.404;2023-05-03T04:18:35;2.60;;;1.98;;
36009;SDS011;22076;52.182;5.404;2023-05-03T04:21:02;7.50;;;2.67;;
36009;SDS011;22076;52.182;5.404;2023-05-03T04:23:29;3.30;;;2.13;;
36009;SDS011;22076;52.182;5.404;2023-05-03T04:25:55;7.05;;;2.55;;
36009;SDS011;22076;52.182;5.404;2023-05-03T04:28:22;5.55;;;2.00;;
36009;SDS011;22076;52.182;5.404;2023-05-03T04:30:49;8.70;;;2.72;;
36009;SDS011;22076;52.182;5.404;2023-05-03T04:33:16;7.75;;;2.78;;
36009;SDS011;22076;52.182;5.404;2023-05-03T04:35:47;8.45;;;2.28;;
36009;SDS011;22076;52.182;5.404;2023-05-03T04:38:14;3.10;;;2.25;;
36009;SDS011;22076;52.182;5.404;2023-05-03T04:40:41;4.72;;;2.75;;
36009;SDS011;22076;52.182;5.404;2023-05-03T04:43:08;6.05;;;3.25;;
36009;SDS011;22076;52.182;5.404;2023-05-03T04:45:35;4.40;;;2.85;;
36009;SDS011;22076;52.182;5.404;2023-05-03T04:48:02;8.27;;;2.72;;
36009;SDS011;22076;52.182;5.404;2023-05-03T04:50:29;6.22;;;2.55;;
36009;SDS011;22076;52.182;5.404;2023-05-03T04:52:57;6.45;;;2.15;;
36009;SDS011;22076;52.182;5.404;2023-05-03T04:55:24;2.85;;;2.15;;
36009;SDS011;22076;52.182;5.404;2023-05-03T04:57:50;6.25;;;2.58;;
36009;SDS011;22076;52.182;5.404;2023-05-03T05:00:17;4.07;;;2.38;;
36009;SDS011;22076;52.182;5.404;2023-05-03T05:02:45;6.65;;;2.58;;
36009;SDS011;22076;52.182;5.404;2023-05-03T05:05:11;6.43;;;2.10;;
36009;SDS011;22076;52.182;5.404;2023-05-03T05:07:38;7.20;;;3.67;;
36009;SDS011;22076;52.182;5.404;2023-05-03T05:10:07;5.53;;;2.63;;
36009;SDS011;22076;52.182;5.404;2023-05-03T05:12:35;5.15;;;2.22;;
36009;SDS011;22076;52.182;5.404;2023-05-03T05:15:01;11.20;;;3.00;;
36009;SDS011;22076;52.182;5.404;2023-05-03T05:17:28;7.65;;;3.10;;
36009;SDS011;22076;52.182;5.404;2023-05-03T05:19:55;5.30;;;2.92;;
36009;SDS011;22076;52.182;5.404;2023-05-03T05:22:21;4.22;;;1.83;;
36009;SDS011;22076;52.182;5.404;2023-05-03T05:24:48;8.90;;;3.22;;
36009;SDS011;22076;52.182;5.404;2023-05-03T05:27:15;8.48;;;3.20;;
36009;SDS011;22076;52.182;5.404;2023-05-03T05:29:42;10.93;;;3.67;;
36009;SDS011;22076;52.182;5.404;2023-05-03T05:32:08;6.00;;;2.17;;
36009;SDS011;22076;52.182;5.404;2023-05-03T05:34:36;4.95;;;2.53;;
36009;SDS011;22076;52.182;5.404;2023-05-03T05:37:04;7.57;;;3.55;;
36009;SDS011;22076;52.182;5.404;2023-05-03T05:39:31;7.63;;;2.20;;
36009;SDS011;22076;52.182;5.404;2023-05-03T05:41:57;7.75;;;2.90;;
36009;SDS011;22076;52.182;5.404;2023-05-03T05:44:25;5.10;;;2.80;;
36009;SDS011;22076;52.182;5.404;2023-05-03T05:46:52;12.00;;;3.47;;
36009;SDS011;22076;52.182;5.404;2023-05-03T05:49:18;1.77;;;1.67;;
36009;SDS011;22076;52.182;5.404;2023-05-03T05:51:45;4.82;;;2.13;;
36009;SDS011;22076;52.182;5.404;2023-05-03T05:54:11;5.47;;;2.13;;
36009;SDS011;22076;52.182;5.404;2023-05-03T05:56:38;4.13;;;2.45;;
36009;SDS011;22076;52.182;5.404;2023-05-03T05:59:05;8.30;;;3.00;;
36009;SDS011;22076;52.182;5.404;2023-05-03T06:01:33;4.93;;;2.20;;
36009;SDS011;22076;52.182;5.404;2023-05-03T06:03:59;12.38;;;2.08;;
36009;SDS011;22076;52.182;5.404;2023-05-03T06:06:26;6.43;;;3.17;;
36009;SDS011;22076;52.182;5.404;2023-05-03T06:08:53;5.22;;;1.23;;
36009;SDS011;22076;52.182;5.404;2023-05-03T06:11:20;9.25;;;2.58;;
36009;SDS011;22076;52.182;5.404;2023-05-03T06:13:46;4.22;;;2.35;;
36009;SDS011;22076;52.182;5.404;2023-05-03T06:16:13;6.80;;;2.75;;
36009;SDS011;22076;52.182;5.404;2023-05-03T06:18:41;7.43;;;1.92;;
36009;SDS011;22076;52.182;5.404;2023-05-03T06:21:08;5.40;;;1.98;;
36009;SDS011;22076;52.182;5.404;2023-05-03T06:23:35;6.28;;;2.80;;
36009;SDS011;22076;52.182;5.404;2023-05-03T06:26:03;3.47;;;1.67;;
36009;SDS011;22076;52.182;5.404;2023-05-03T06:28:30;6.07;;;1.45;;
36009;SDS011;22076;52.182;5.404;2023-05-03T06:30:56;5.18;;;2.65;;
36009;SDS011;22076;52.182;5.404;2023-05-03T06:33:23;6.28;;;2.78;;
36009;SDS011;22076;52.182;5.404;2023-05-03T06:35:51;7.50;;;3.30;;
36009;SDS011;22076;52.182;5.404;2023-05-03T06:38:18;9.40;;;3.05;;
36009;SDS011;22076;52.182;5.404;2023-05-03T06:40:45;3.97;;;1.90;;
36009;SDS011;22076;52.182;5.404;2023-05-03T06:43:12;2.92;;;2.08;;
36009;SDS011;22076;52.182;5.404;2023-05-03T06:45:40;2.58;;;1.90;;
36009;SDS011;22076;52.182;5.404;2023-05-03T06:48:08;4.22;;;2.75;;
36009;SDS011;22076;52.182;5.404;2023-05-03T06:50:35;6.50;;;2.53;;
36009;SDS011;22076;52.182;5.404;2023-05-03T06:53:04;8.30;;;2.92;;
36009;SDS011;22076;52.182;5.404;2023-05-03T06:55:30;3.95;;;2.80;;
36009;SDS011;22076;52.182;5.404;2023-05-03T06:57:58;7.80;;;2.22;;
36009;SDS011;22076;52.182;5.404;2023-05-03T07:00:25;5.70;;;2.90;;
36009;SDS011;22076;52.182;5.404;2023-05-03T07:02:51;6.72;;;2.50;;
36009;SDS011;22076;52.182;5.404;2023-05-03T07:05:18;7.47;;;2.80;;
36009;SDS011;22076;52.182;5.404;2023-05-03T07:07:45;10.45;;;2.83;;
36009;SDS011;22076;52.182;5.404;2023-05-03T07:10:13;7.70;;;2.00;;
36009;SDS011;22076;52.182;5.404;2023-05-03T07:12:40;5.10;;;2.05;;
36009;SDS011;22076;52.182;5.404;2023-05-03T07:15:08;6.53;;;1.70;;
36009;SDS011;22076;52.182;5.404;2023-05-03T07:17:36;6.00;;;1.80;;
36009;SDS011;22076;52.182;5.404;2023-05-03T07:20:03;4.75;;;2.08;;
36009;SDS011;22076;52.182;5.404;2023-05-03T07:22:30;5.97;;;2.20;;
36009;SDS011;22076;52.182;5.404;2023-05-03T07:24:57;3.88;;;2.00;;
36009;SDS011;22076;52.182;5.404;2023-05-03T07:27:25;5.78;;;1.92;;
36009;SDS011;22076;52.182;5.404;2023-05-03T07:29:52;5.32;;;1.70;;
36009;SDS011;22076;52.182;5.404;2023-05-03T07:32:20;4.05;;;1.48;;
36009;SDS011;22076;52.182;5.404;2023-05-03T07:34:47;4.90;;;1.50;;
36009;SDS011;22076;52.182;5.404;2023-05-03T07:37:13;7.18;;;1.75;;
36009;SDS011;22076;52.182;5.404;2023-05-03T07:39:41;2.95;;;1.50;;
36009;SDS011;22076;52.182;5.404;2023-05-03T07:42:07;6.88;;;2.35;;
36009;SDS011;22076;52.182;5.404;2023-05-03T07:44:35;6.30;;;1.90;;
36009;SDS011;22076;52.182;5.404;2023-05-03T07:47:02;7.32;;;1.95;;
36009;SDS011;22076;52.182;5.404;2023-05-03T07:49:29;6.22;;;2.25;;
36009;SDS011;22076;52.182;5.404;2023-05-03T07:51:59;3.25;;;1.55;;
36009;SDS011;22076;52.182;5.404;2023-05-03T07:54:28;5.93;;;1.80;;
36009;SDS011;22076;52.182;5.404;2023-05-03T07:56:54;9.13;;;1.75;;
36009;SDS011;22076;52.182;5.404;2023-05-03T07:59:22;6.50;;;2.15;;
36009;SDS011;22076;52.182;5.404;2023-05-03T08:01:50;3.85;;;1.90;;
36009;SDS011;22076;52.182;5.404;2023-05-03T08:04:18;6.93;;;1.95;;
36009;SDS011;22076;52.182;5.404;2023-05-03T08:07:03;4.13;;;1.80;;
36009;SDS011;22076;52.182;5.404;2023-05-03T08:09:36;5.15;;;2.25;;
36009;SDS011;22076;52.182;5.404;2023-05-03T08:12:10;8.45;;;2.00;;
36009;SDS011;22076;52.182;5.404;2023-05-03T08:14:37;10.30;;;1.80;;
36009;SDS011;22076;52.182;5.404;2023-05-03T08:17:06;8.13;;;1.80;;
36009;SDS011;22076;52.182;5.404;2023-05-03T08:19:35;8.73;;;1.80;;
36009;SDS011;22076;52.182;5.404;2023-05-03T08:22:02;8.15;;;1.70;;
36009;SDS011;22076;52.182;5.404;2023-05-03T08:24:29;10.07;;;2.35;;
36009;SDS011;22076;52.182;5.404;2023-05-03T08:26:57;5.20;;;1.67;;
36009;SDS011;22076;52.182;5.404;2023-05-03T08:29:24;6.18;;;1.75;;
36009;SDS011;22076;52.182;5.404;2023-05-03T08:31:50;5.25;;;1.90;;
36009;SDS011;22076;52.182;5.404;2023-05-03T08:34:18;5.50;;;2.10;;
36009;SDS011;22076;52.182;5.404;2023-05-03T08:36:45;6.38;;;2.08;;
36009;SDS011;22076;52.182;5.404;2023-05-03T08:39:12;4.15;;;1.40;;
36009;SDS011;22076;52.182;5.404;2023-05-03T08:41:42;5.88;;;2.38;;
36009;SDS011;22076;52.182;5.404;2023-05-03T08:44:11;14.05;;;2.55;;
36009;SDS011;22076;52.182;5.404;2023-05-03T08:46:38;2.85;;;2.20;;
36009;SDS011;22076;52.182;5.404;2023-05-03T08:49:05;3.78;;;2.03;;
36009;SDS011;22076;52.182;5.404;2023-05-03T08:51:33;6.13;;;2.08;;
36009;SDS011;22076;52.182;5.404;2023-05-03T08:54:02;4.85;;;1.90;;
36009;SDS011;22076;52.182;5.404;2023-05-03T08:56:32;5.72;;;1.60;;
36009;SDS011;22076;52.182;5.404;2023-05-03T08:59:04;4.88;;;1.67;;
36009;SDS011;22076;52.182;5.404;2023-05-03T09:01:34;5.30;;;2.33;;
36009;SDS011;22076;52.182;5.404;2023-05-03T09:04:00;6.70;;;1.95;;
36009;SDS011;22076;52.182;5.404;2023-05-03T09:06:28;4.25;;;1.60;;
36009;SDS011;22076;52.182;5.404;2023-05-03T09:09:00;3.53;;;1.50;;
36009;SDS011;22076;52.182;5.404;2023-05-03T09:11:30;3.15;;;1.70;;
36009;SDS011;22076;52.182;5.404;2023-05-03T09:14:06;2.60;;;1.40;;
36009;SDS011;22076;52.182;5.404;2023-05-03T09:16:37;5.53;;;2.10;;
36009;SDS011;22076;52.182;5.404;2023-05-03T09:19:06;4.55;;;2.13;;
36009;SDS011;22076;52.182;5.404;2023-05-03T09:21:35;3.88;;;1.50;;
36009;SDS011;22076;52.182;5.404;2023-05-03T09:24:11;3.63;;;1.70;;
36009;SDS011;22076;52.182;5.404;2023-05-03T09:26:41;4.35;;;2.35;;
36009;SDS011;22076;52.182;5.404;2023-05-03T09:29:08;3.65;;;1.85;;
36009;SDS011;22076;52.182;5.404;2023-05-03T09:31:35;5.50;;;1.75;;
36009;SDS011;22076;52.182;5.404;2023-05-03T09:34:04;5.65;;;2.17;;
36009;SDS011;22076;52.182;5.404;2023-05-03T09:36:46;7.28;;;2.33;;
36009;SDS011;22076;52.182;5.404;2023-05-03T09:39:16;9.02;;;2.20;;
36009;SDS011;22076;52.182;5.404;2023-05-03T09:41:43;7.03;;;2.20;;
36009;SDS011;22076;52.182;5.404;2023-05-03T09:44:09;4.40;;;1.45;;
36009;SDS011;22076;52.182;5.404;2023-05-03T09:46:36;6.50;;;1.98;;
36009;SDS011;22076;52.182;5.404;2023-05-03T09:49:03;9.30;;;2.30;;
36009;SDS011;22076;52.182;5.404;2023-05-03T09:51:30;6.40;;;2.30;;
36009;SDS011;22076;52.182;5.404;2023-05-03T09:53:57;6.82;;;2.15;;
36009;SDS011;22076;52.182;5.404;2023-05-03T09:56:26;4.80;;;2.17;;
36009;SDS011;22076;52.182;5.404;2023-05-03T09:58:52;4.28;;;2.30;;
36009;SDS011;22076;52.182;5.404;2023-05-03T10:01:19;6.20;;;1.88;;
36009;SDS011;22076;52.182;5.404;2023-05-03T10:03:47;2.88;;;1.92;;
36009;SDS011;22076;52.182;5.404;2023-05-03T10:06:17;5.57;;;2.95;;
36009;SDS011;22076;52.182;5.404;2023-05-03T10:08:48;5.57;;;2.25;;
36009;SDS011;22076;52.182;5.404;2023-05-03T10:11:18;4.00;;;1.70;;
36009;SDS011;22076;52.182;5.404;2023-05-03T10:13:46;5.35;;;2.03;;
36009;SDS011;22076;52.182;5.404;2023-05-03T10:16:14;6.32;;;2.17;;
36009;SDS011;22076;52.182;5.404;2023-05-03T10:18:44;3.70;;;1.70;;
36009;SDS011;22076;52.182;5.404;2023-05-03T10:21:13;7.97;;;2.15;;
36009;SDS011;22076;52.182;5.404;2023-05-03T10:26:38;6.75;;;2.25;;
36009;SDS011;22076;52.182;5.404;2023-05-03T10:29:06;6.97;;;2.20;;
36009;SDS011;22076;52.182;5.404;2023-05-03T10:32:34;5.47;;;2.20;;
36009;SDS011;22076;52.182;5.404;2023-05-03T10:35:05;4.38;;;1.52;;
36009;SDS011;22076;52.182;5.404;2023-05-03T10:37:33;5.43;;;2.38;;
36009;SDS011;22076;52.182;5.404;2023-05-03T10:40:07;5.35;;;2.08;;
36009;SDS011;22076;52.182;5.404;2023-05-03T10:42:35;5.95;;;1.95;;
36009;SDS011;22076;52.182;5.404;2023-05-03T10:45:04;2.78;;;1.92;;
36009;SDS011;22076;52.182;5.404;2023-05-03T10:47:33;2.83;;;1.50;;
36009;SDS011;22076;52.182;5.404;2023-05-03T10:52:52;6.03;;;2.60;;
36009;SDS011;22076;52.182;5.404;2023-05-03T10:55:19;4.78;;;1.77;;
36009;SDS011;22076;52.182;5.404;2023-05-03T10:57:49;6.40;;;2.25;;
36009;SDS011;22076;52.182;5.404;2023-05-03T11:00:21;7.13;;;2.40;;
36009;SDS011;22076;52.182;5.404;2023-05-03T11:03:08;13.35;;;2.67;;
36009;SDS011;22076;52.182;5.404;2023-05-03T11:05:38;3.63;;;2.20;;
36009;SDS011;22076;52.182;5.404;2023-05-03T11:08:09;5.32;;;2.25;;
36009;SDS011;22076;52.182;5.404;2023-05-03T11:10:37;6.05;;;1.80;;
36009;SDS011;22076;52.182;5.404;2023-05-03T11:13:03;7.35;;;2.53;;
36009;SDS011;22076;52.182;5.404;2023-05-03T11:15:32;5.13;;;2.90;;
36009;SDS011;22076;52.182;5.404;2023-05-03T11:17:58;4.97;;;2.03;;
36009;SDS011;22076;52.182;5.404;2023-05-03T11:20:25;6.95;;;2.42;;
36009;SDS011;22076;52.182;5.404;2023-05-03T11:22:52;4.20;;;1.80;;
36009;SDS011;22076;52.182;5.404;2023-05-03T11:25:19;4.63;;;2.30;;
36009;SDS011;22076;52.182;5.404;2023-05-03T11:27:45;3.42;;;2.13;;
36009;SDS011;22076;52.182;5.404;2023-05-03T11:30:12;4.10;;;1.88;;
36009;SDS011;22076;52.182;5.404;2023-05-03T11:32:42;4.10;;;2.10;;
36009;SDS011;22076;52.182;5.404;2023-05-03T11:35:09;3.88;;;2.55;;
36009;SDS011;22076;52.182;5.404;2023-05-03T11:37:36;4.30;;;2.00;;
36009;SDS011;22076;52.182;5.404;2023-05-03T11:40:02;2.70;;;1.88;;
36009;SDS011;22076;52.182;5.404;2023-05-03T11:42:30;4.07;;;2.00;;
36009;SDS011;22076;52.182;5.404;2023-05-03T11:44:57;6.30;;;2.47;;
36009;SDS011;22076;52.182;5.404;2023-05-03T11:47:24;4.50;;;1.90;;
36009;SDS011;22076;52.182;5.404;2023-05-03T11:49:52;4.13;;;1.80;;
36009;SDS011;22076;52.182;5.404;2023-05-03T11:52:21;5.43;;;2.30;;
36009;SDS011;22076;52.182;5.404;2023-05-03T11:54:48;2.75;;;1.70;;
36009;SDS011;22076;52.182;5.404;2023-05-03T11:57:14;5.32;;;2.28;;
36009;SDS011;22076;52.182;5.404;2023-05-03T11:59:41;9.60;;;2.55;;
36009;SDS011;22076;52.182;5.404;2023-05-03T12:02:09;5.60;;;1.92;;
36009;SDS011;22076;52.182;5.404;2023-05-03T12:04:38;2.65;;;2.20;;
36009;SDS011;22076;52.182;5.404;2023-05-03T12:07:07;5.43;;;2.38;;
36009;SDS011;22076;52.182;5.404;2023-05-03T12:09:34;4.75;;;2.40;;
36009;SDS011;22076;52.182;5.404;2023-05-03T12:12:01;6.47;;;2.50;;
36009;SDS011;22076;52.182;5.404;2023-05-03T12:14:28;4.28;;;2.55;;
36009;SDS011;22076;52.182;5.404;2023-05-03T12:20:13;4.05;;;2.00;;
36009;SDS011;22076;52.182;5.404;2023-05-03T12:22:42;5.50;;;2.30;;
36009;SDS011;22076;52.182;5.404;2023-05-03T12:25:11;4.43;;;2.03;;
36009;SDS011;22076;52.182;5.404;2023-05-03T12:27:38;6.13;;;2.40;;
36009;SDS011;22076;52.182;5.404;2023-05-03T12:30:05;4.95;;;2.13;;
36009;SDS011;22076;52.182;5.404;2023-05-03T12:32:34;3.35;;;2.40;;
36009;SDS011;22076;52.182;5.404;2023-05-03T12:35:02;4.63;;;2.80;;
36009;SDS011;22076;52.182;5.404;2023-05-03T12:37:29;5.97;;;2.53;;
36009;SDS011;22076;52.182;5.404;2023-05-03T12:39:57;4.05;;;2.35;;
36009;SDS011;22076;52.182;5.404;2023-05-03T12:42:24;6.30;;;2.83;;
36009;SDS011;22076;52.182;5.404;2023-05-03T12:44:51;4.45;;;1.92;;
36009;SDS011;22076;52.182;5.404;2023-05-03T12:47:17;6.70;;;3.33;;
36009;SDS011;22076;52.182;5.404;2023-05-03T12:49:44;4.50;;;2.25;;
36009;SDS011;22076;52.182;5.404;2023-05-03T12:52:10;3.60;;;2.50;;
36009;SDS011;22076;52.182;5.404;2023-05-03T12:54:37;6.30;;;2.97;;
36009;SDS011;22076;52.182;5.404;2023-05-03T12:57:05;5.72;;;2.70;;
36009;SDS011;22076;52.182;5.404;2023-05-03T12:59:34;4.88;;;2.85;;
36009;SDS011;22076;52.182;5.404;2023-05-03T13:02:00;4.47;;;2.63;;
36009;SDS011;22076;52.182;5.404;2023-05-03T13:04:27;4.45;;;2.83;;
36009;SDS011;22076;52.182;5.404;2023-05-03T13:06:54;8.40;;;3.00;;
36009;SDS011;22076;52.182;5.404;2023-05-03T13:09:20;5.68;;;3.20;;
36009;SDS011;22076;52.182;5.404;2023-05-03T13:11:53;6.13;;;3.25;;
36009;SDS011;22076;52.182;5.404;2023-05-03T13:14:22;7.75;;;3.88;;
36009;SDS011;22076;52.182;5.404;2023-05-03T13:17:04;6.40;;;2.92;;
36009;SDS011;22076;52.182;5.404;2023-05-03T13:19:36;5.10;;;3.05;;
36009;SDS011;22076;52.182;5.404;2023-05-03T13:22:17;6.28;;;3.15;;
36009;SDS011;22076;52.182;5.404;2023-05-03T13:24:55;6.63;;;2.97;;
36009;SDS011;22076;52.182;5.404;2023-05-03T13:27:23;5.72;;;3.30;;
36009;SDS011;22076;52.182;5.404;2023-05-03T13:29:53;7.85;;;3.13;;
36009;SDS011;22076;52.182;5.404;2023-05-03T13:32:21;8.50;;;3.55;;
36009;SDS011;22076;52.182;5.404;2023-05-03T13:34:48;5.13;;;3.00;;
36009;SDS011;22076;52.182;5.404;2023-05-03T13:37:14;5.18;;;3.20;;
36009;SDS011;22076;52.182;5.404;2023-05-03T13:39:43;5.80;;;2.88;;
36009;SDS011;22076;52.182;5.404;2023-05-03T13:42:10;7.40;;;3.65;;
36009;SDS011;22076;52.182;5.404;2023-05-03T13:44:36;5.03;;;3.08;;
36009;SDS011;22076;52.182;5.404;2023-05-03T13:47:04;6.03;;;3.10;;
36009;SDS011;22076;52.182;5.404;2023-05-03T13:49:31;6.75;;;3.00;;
36009;SDS011;22076;52.182;5.404;2023-05-03T13:51:57;4.22;;;3.30;;
36009;SDS011;22076;52.182;5.404;2023-05-03T13:54:24;5.03;;;3.15;;
36009;SDS011;22076;52.182;5.404;2023-05-03T13:56:50;3.88;;;2.95;;
36009;SDS011;22076;52.182;5.404;2023-05-03T13:59:17;6.30;;;3.53;;
36009;SDS011;22076;52.182;5.404;2023-05-03T14:01:45;5.30;;;3.38;;
36009;SDS011;22076;52.182;5.404;2023-05-03T14:04:13;5.05;;;3.33;;
36009;SDS011;22076;52.182;5.404;2023-05-03T14:06:39;5.05;;;3.00;;
36009;SDS011;22076;52.182;5.404;2023-05-03T14:09:06;3.95;;;2.85;;
36009;SDS011;22076;52.182;5.404;2023-05-03T14:11:33;5.22;;;3.03;;
36009;SDS011;22076;52.182;5.404;2023-05-03T14:14:00;4.93;;;3.42;;
36009;SDS011;22076;52.182;5.404;2023-05-03T14:16:27;9.20;;;4.05;;
36009;SDS011;22076;52.182;5.404;2023-05-03T14:18:53;4.13;;;2.78;;
36009;SDS011;22076;52.182;5.404;2023-05-03T14:21:22;6.13;;;3.33;;
36009;SDS011;22076;52.182;5.404;2023-05-03T14:23:49;6.18;;;3.42;;
36009;SDS011;22076;52.182;5.404;2023-05-03T14:26:16;3.67;;;3.17;;
36009;SDS011;22076;52.182;5.404;2023-05-03T14:28:43;5.78;;;3.65;;
36009;SDS011;22076;52.182;5.404;2023-05-03T14:31:10;7.15;;;3.45;;
36009;SDS011;22076;52.182;5.404;2023-05-03T14:33:37;5.18;;;3.03;;
36009;SDS011;22076;52.182;5.404;2023-05-03T14:36:05;6.78;;;3.30;;
36009;SDS011;22076;52.182;5.404;2023-05-03T14:38:33;5.15;;;3.03;;
36009;SDS011;22076;52.182;5.404;2023-05-03T14:41:01;5.72;;;3.55;;
36009;SDS011;22076;52.182;5.404;2023-05-03T14:43:29;9.45;;;3.50;;
36009;SDS011;22076;52.182;5.404;2023-05-03T14:45:55;3.58;;;3.25;;
36009;SDS011;22076;52.182;5.404;2023-05-03T14:48:21;5.30;;;3.70;;
36009;SDS011;22076;52.182;5.404;2023-05-03T14:50:48;4.03;;;3.65;;
36009;SDS011;22076;52.182;5.404;2023-05-03T14:53:15;5.43;;;3.67;;
36009;SDS011;22076;52.182;5.404;2023-05-03T14:55:43;8.30;;;4.30;;
36009;SDS011;22076;52.182;5.404;2023-05-03T14:58:10;5.45;;;3.63;;
36009;SDS011;22076;52.182;5.404;2023-05-03T15:00:37;5.10;;;3.97;;